sensor_id;sensor_type;location;lat;lon;timestamp;P1;durP1;ratioP1;P2;durP2;ratioP2
5831;SDS011;50943;51.448;7.646;2022-12-07T00:00:09;58.80;;;28.00;;
5831;SDS011;50943;51.448;7.646;2022-12-07T00:02:35;73.93;;;31.17;;
5831;SDS011;50943;51.448;7.646;2022-12-07T00:05:01;67.87;;;28.00;;
5831;SDS011;50943;51.448;7.646;2022-12-07T00:07:28;67.17;;;28.37;;
5831;SDS011;50943;51.448;7.646;2022-12-07T00:09:55;64.20;;;29.13;;
5831;SDS011;50943;51.448;7.646;2022-12-07T00:12:21;61.50;;;28.60;;
5831;SDS011;50943;51.448;7.646;2022-12-07T00:14:47;53.87;;;27.23;;
5831;SDS011;50943;51.448;7.646;2022-12-07T00:17:15;67.93;;;27.77;;
5831;SDS011;50943;51.448;7.646;2022-12-07T00:19:41;72.00;;;29.93;;
5831;SDS011;50943;51.448;7.646;2022-12-07T00:22:08;59.27;;;28.13;;
5831;SDS011;50943;51.448;7.646;2022-12-07T00:24:34;57.13;;;28.20;;
5831;SDS011;50943;51.448;7.646;2022-12-07T00:27:01;60.50;;;27.97;;
5831;SDS011;50943;51.448;7.646;2022-12-07T00:29:27;60.20;;;27.03;;
5831;SDS011;50943;51.448;7.646;2022-12-07T00:31:53;63.90;;;27.17;;
5831;SDS011;50943;51.448;7.646;2022-12-07T00:34:21;51.60;;;25.80;;
5831;SDS011;50943;51.448;7.646;2022-12-07T00:36:48;55.90;;;26.00;;
5831;SDS011;50943;51.448;7.646;2022-12-07T00:39:14;63.70;;;27.87;;
5831;SDS011;50943;51.448;7.646;2022-12-07T00:41:41;55.07;;;26.17;;
5831;SDS011;50943;51.448;7.646;2022-12-07T00:44:07;64.37;;;28.60;;
5831;SDS011;50943;51.448;7.646;2022-12-07T00:46:34;60.17;;;27.73;;
5831;SDS011;50943;51.448;7.646;2022-12-07T00:49:00;61.23;;;29.20;;
5831;SDS011;50943;51.448;7.646;2022-12-07T00:51:28;55.53;;;26.60;;
5831;SDS011;50943;51.448;7.646;2022-12-07T00:53:54;57.93;;;26.90;;
5831;SDS011;50943;51.448;7.646;2022-12-07T00:56:21;59.90;;;27.87;;
5831;SDS011;50943;51.448;7.646;2022-12-07T00:58:52;52.53;;;26.10;;
5831;SDS011;50943;51.448;7.646;2022-12-07T01:01:18;61.77;;;27.47;;
5831;SDS011;50943;51.448;7.646;2022-12-07T01:03:45;61.53;;;26.90;;
5831;SDS011;50943;51.448;7.646;2022-12-07T01:06:13;63.10;;;28.90;;
5831;SDS011;50943;51.448;7.646;2022-12-07T01:08:41;55.27;;;27.10;;
5831;SDS011;50943;51.448;7.646;2022-12-07T01:11:09;62.20;;;29.33;;
5831;SDS011;50943;51.448;7.646;2022-12-07T01:13:37;72.63;;;31.00;;
5831;SDS011;50943;51.448;7.646;2022-12-07T01:16:04;62.13;;;30.63;;
5831;SDS011;50943;51.448;7.646;2022-12-07T01:18:32;62.50;;;29.70;;
5831;SDS011;50943;51.448;7.646;2022-12-07T01:21:00;69.80;;;32.50;;
5831;SDS011;50943;51.448;7.646;2022-12-07T01:23:26;71.57;;;29.90;;
5831;SDS011;50943;51.448;7.646;2022-12-07T01:25:55;73.83;;;33.50;;
5831;SDS011;50943;51.448;7.646;2022-12-07T01:28:21;72.73;;;31.20;;
5831;SDS011;50943;51.448;7.646;2022-12-07T01:30:54;69.17;;;31.47;;
5831;SDS011;50943;51.448;7.646;2022-12-07T01:33:20;65.33;;;29.10;;
5831;SDS011;50943;51.448;7.646;2022-12-07T01:35:47;66.67;;;30.60;;
5831;SDS011;50943;51.448;7.646;2022-12-07T01:38:13;76.33;;;32.10;;
5831;SDS011;50943;51.448;7.646;2022-12-07T01:40:39;68.33;;;30.40;;
5831;SDS011;50943;51.448;7.646;2022-12-07T01:43:09;68.30;;;30.23;;
5831;SDS011;50943;51.448;7.646;2022-12-07T01:45:40;61.47;;;27.43;;
5831;SDS011;50943;51.448;7.646;2022-12-07T01:48:07;69.90;;;30.77;;
5831;SDS011;50943;51.448;7.646;2022-12-07T01:50:34;61.20;;;29.23;;
5831;SDS011;50943;51.448;7.646;2022-12-07T01:53:01;68.47;;;31.27;;
5831;SDS011;50943;51.448;7.646;2022-12-07T01:55:29;64.70;;;31.47;;
5831;SDS011;50943;51.448;7.646;2022-12-07T01:57:56;71.23;;;30.67;;
5831;SDS011;50943;51.448;7.646;2022-12-07T02:00:24;65.60;;;28.03;;
5831;SDS011;50943;51.448;7.646;2022-12-07T02:02:51;68.83;;;31.90;;
5831;SDS011;50943;51.448;7.646;2022-12-07T02:05:19;70.67;;;29.67;;
5831;SDS011;50943;51.448;7.646;2022-12-07T02:07:46;69.80;;;30.27;;
5831;SDS011;50943;51.448;7.646;2022-12-07T02:10:14;64.00;;;28.03;;
5831;SDS011;50943;51.448;7.646;2022-12-07T02:12:41;66.80;;;28.77;;
5831;SDS011;50943;51.448;7.646;2022-12-07T02:15:09;67.80;;;28.80;;
5831;SDS011;50943;51.448;7.646;2022-12-07T02:17:39;64.87;;;29.80;;
5831;SDS011;50943;51.448;7.646;2022-12-07T02:20:13;70.33;;;29.20;;
5831;SDS011;50943;51.448;7.646;2022-12-07T02:22:50;64.97;;;30.30;;
5831;SDS011;50943;51.448;7.646;2022-12-07T02:25:20;63.43;;;29.00;;
5831;SDS011;50943;51.448;7.646;2022-12-07T02:27:51;59.70;;;28.90;;
5831;SDS011;50943;51.448;7.646;2022-12-07T02:30:20;63.23;;;29.50;;
5831;SDS011;50943;51.448;7.646;2022-12-07T02:32:48;55.77;;;26.50;;
5831;SDS011;50943;51.448;7.646;2022-12-07T02:35:18;58.10;;;28.60;;
5831;SDS011;50943;51.448;7.646;2022-12-07T02:37:48;61.50;;;28.27;;
5831;SDS011;50943;51.448;7.646;2022-12-07T02:40:18;55.17;;;26.10;;
5831;SDS011;50943;51.448;7.646;2022-12-07T02:42:45;56.73;;;26.13;;
5831;SDS011;50943;51.448;7.646;2022-12-07T02:45:15;58.20;;;24.10;;
5831;SDS011;50943;51.448;7.646;2022-12-07T02:47:44;57.60;;;25.40;;
5831;SDS011;50943;51.448;7.646;2022-12-07T02:50:13;58.17;;;27.50;;
5831;SDS011;50943;51.448;7.646;2022-12-07T02:52:40;73.40;;;27.47;;
5831;SDS011;50943;51.448;7.646;2022-12-07T02:55:06;55.40;;;27.93;;
5831;SDS011;50943;51.448;7.646;2022-12-07T02:57:37;66.87;;;27.33;;
5831;SDS011;50943;51.448;7.646;2022-12-07T03:00:08;63.07;;;27.53;;
5831;SDS011;50943;51.448;7.646;2022-12-07T03:02:36;54.40;;;24.80;;
5831;SDS011;50943;51.448;7.646;2022-12-07T03:05:12;60.37;;;26.90;;
5831;SDS011;50943;51.448;7.646;2022-12-07T03:07:39;62.60;;;27.30;;
5831;SDS011;50943;51.448;7.646;2022-12-07T03:10:10;68.57;;;25.83;;
5831;SDS011;50943;51.448;7.646;2022-12-07T03:12:42;55.23;;;24.77;;
5831;SDS011;50943;51.448;7.646;2022-12-07T03:15:12;52.47;;;25.40;;
5831;SDS011;50943;51.448;7.646;2022-12-07T03:17:40;55.67;;;23.53;;
5831;SDS011;50943;51.448;7.646;2022-12-07T03:20:10;57.53;;;25.00;;
5831;SDS011;50943;51.448;7.646;2022-12-07T03:22:38;58.87;;;27.20;;
5831;SDS011;50943;51.448;7.646;2022-12-07T03:25:06;54.03;;;24.90;;
5831;SDS011;50943;51.448;7.646;2022-12-07T03:27:34;53.00;;;26.47;;
5831;SDS011;50943;51.448;7.646;2022-12-07T03:30:03;61.23;;;25.77;;
5831;SDS011;50943;51.448;7.646;2022-12-07T03:32:30;52.40;;;23.97;;
5831;SDS011;50943;51.448;7.646;2022-12-07T03:35:00;56.13;;;25.23;;
5831;SDS011;50943;51.448;7.646;2022-12-07T03:37:36;50.57;;;24.90;;
5831;SDS011;50943;51.448;7.646;2022-12-07T03:40:06;55.07;;;23.90;;
5831;SDS011;50943;51.448;7.646;2022-12-07T03:42:34;58.63;;;25.27;;
5831;SDS011;50943;51.448;7.646;2022-12-07T03:45:00;57.23;;;26.07;;
5831;SDS011;50943;51.448;7.646;2022-12-07T03:47:29;57.83;;;23.90;;
5831;SDS011;50943;51.448;7.646;2022-12-07T03:49:59;55.50;;;24.63;;
5831;SDS011;50943;51.448;7.646;2022-12-07T03:52:30;53.40;;;24.97;;
5831;SDS011;50943;51.448;7.646;2022-12-07T03:55:00;54.60;;;23.67;;
5831;SDS011;50943;51.448;7.646;2022-12-07T03:57:28;53.67;;;24.97;;
5831;SDS011;50943;51.448;7.646;2022-12-07T03:59:56;54.83;;;22.57;;
5831;SDS011;50943;51.448;7.646;2022-12-07T04:02:23;55.90;;;23.37;;
5831;SDS011;50943;51.448;7.646;2022-12-07T04:04:51;53.33;;;23.90;;
5831;SDS011;50943;51.448;7.646;2022-12-07T04:07:17;49.87;;;21.50;;
5831;SDS011;50943;51.448;7.646;2022-12-07T04:09:44;60.63;;;22.60;;
5831;SDS011;50943;51.448;7.646;2022-12-07T04:12:11;49.80;;;22.17;;
5831;SDS011;50943;51.448;7.646;2022-12-07T04:14:38;55.03;;;22.43;;
5831;SDS011;50943;51.448;7.646;2022-12-07T04:17:06;57.80;;;23.60;;
5831;SDS011;50943;51.448;7.646;2022-12-07T04:19:33;53.00;;;24.20;;
5831;SDS011;50943;51.448;7.646;2022-12-07T04:22:00;51.50;;;24.30;;
5831;SDS011;50943;51.448;7.646;2022-12-07T04:24:27;47.97;;;24.03;;
5831;SDS011;50943;51.448;7.646;2022-12-07T04:26:54;46.63;;;22.57;;
5831;SDS011;50943;51.448;7.646;2022-12-07T04:29:22;56.50;;;22.93;;
5831;SDS011;50943;51.448;7.646;2022-12-07T04:31:48;48.63;;;23.57;;
5831;SDS011;50943;51.448;7.646;2022-12-07T04:34:15;60.70;;;23.17;;
5831;SDS011;50943;51.448;7.646;2022-12-07T04:36:42;57.80;;;23.97;;
5831;SDS011;50943;51.448;7.646;2022-12-07T04:39:19;59.53;;;23.53;;
5831;SDS011;50943;51.448;7.646;2022-12-07T04:41:45;58.53;;;22.77;;
5831;SDS011;50943;51.448;7.646;2022-12-07T04:44:12;48.20;;;23.30;;
5831;SDS011;50943;51.448;7.646;2022-12-07T04:46:41;51.03;;;22.50;;
5831;SDS011;50943;51.448;7.646;2022-12-07T04:49:07;56.33;;;22.60;;
5831;SDS011;50943;51.448;7.646;2022-12-07T04:51:34;51.07;;;22.57;;
5831;SDS011;50943;51.448;7.646;2022-12-07T04:54:00;43.27;;;20.67;;
5831;SDS011;50943;51.448;7.646;2022-12-07T04:56:27;46.77;;;22.33;;
5831;SDS011;50943;51.448;7.646;2022-12-07T04:58:53;47.83;;;20.83;;
5831;SDS011;50943;51.448;7.646;2022-12-07T05:01:20;47.33;;;21.20;;
5831;SDS011;50943;51.448;7.646;2022-12-07T05:03:48;44.57;;;20.30;;
5831;SDS011;50943;51.448;7.646;2022-12-07T05:06:14;46.07;;;20.27;;
5831;SDS011;50943;51.448;7.646;2022-12-07T05:08:41;50.57;;;20.30;;
5831;SDS011;50943;51.448;7.646;2022-12-07T05:11:08;42.00;;;19.93;;
5831;SDS011;50943;51.448;7.646;2022-12-07T05:13:35;37.07;;;18.87;;
5831;SDS011;50943;51.448;7.646;2022-12-07T05:16:01;45.13;;;20.20;;
5831;SDS011;50943;51.448;7.646;2022-12-07T05:18:28;41.90;;;18.80;;
5831;SDS011;50943;51.448;7.646;2022-12-07T05:20:56;42.30;;;19.00;;
5831;SDS011;50943;51.448;7.646;2022-12-07T05:23:22;43.57;;;18.53;;
5831;SDS011;50943;51.448;7.646;2022-12-07T05:25:48;47.83;;;20.30;;
5831;SDS011;50943;51.448;7.646;2022-12-07T05:28:15;44.47;;;20.40;;
5831;SDS011;50943;51.448;7.646;2022-12-07T05:30:41;47.10;;;19.70;;
5831;SDS011;50943;51.448;7.646;2022-12-07T05:33:08;48.57;;;19.50;;
5831;SDS011;50943;51.448;7.646;2022-12-07T05:35:34;43.17;;;19.53;;
5831;SDS011;50943;51.448;7.646;2022-12-07T05:38:04;45.13;;;18.87;;
5831;SDS011;50943;51.448;7.646;2022-12-07T05:40:30;42.43;;;18.80;;
5831;SDS011;50943;51.448;7.646;2022-12-07T05:42:57;42.83;;;18.80;;
5831;SDS011;50943;51.448;7.646;2022-12-07T05:45:22;38.77;;;18.50;;
5831;SDS011;50943;51.448;7.646;2022-12-07T05:47:48;45.17;;;18.40;;
5831;SDS011;50943;51.448;7.646;2022-12-07T05:50:15;52.17;;;18.90;;
5831;SDS011;50943;51.448;7.646;2022-12-07T05:52:41;46.07;;;19.60;;
5831;SDS011;50943;51.448;7.646;2022-12-07T05:55:09;45.10;;;17.43;;
5831;SDS011;50943;51.448;7.646;2022-12-07T05:57:36;43.93;;;18.40;;
5831;SDS011;50943;51.448;7.646;2022-12-07T06:00:02;43.77;;;18.83;;
5831;SDS011;50943;51.448;7.646;2022-12-07T06:02:28;41.97;;;18.80;;
5831;SDS011;50943;51.448;7.646;2022-12-07T06:04:55;39.67;;;17.80;;
5831;SDS011;50943;51.448;7.646;2022-12-07T06:07:21;41.10;;;18.70;;
5831;SDS011;50943;51.448;7.646;2022-12-07T06:09:47;39.53;;;17.83;;
5831;SDS011;50943;51.448;7.646;2022-12-07T06:12:15;49.20;;;18.67;;
5831;SDS011;50943;51.448;7.646;2022-12-07T06:14:59;39.03;;;17.07;;
5831;SDS011;50943;51.448;7.646;2022-12-07T06:17:25;29.63;;;15.60;;
5831;SDS011;50943;51.448;7.646;2022-12-07T06:19:52;39.40;;;17.63;;
5831;SDS011;50943;51.448;7.646;2022-12-07T06:22:18;45.50;;;17.60;;
5831;SDS011;50943;51.448;7.646;2022-12-07T06:24:45;43.10;;;17.37;;
5831;SDS011;50943;51.448;7.646;2022-12-07T06:27:11;37.30;;;16.20;;
5831;SDS011;50943;51.448;7.646;2022-12-07T06:29:39;36.73;;;16.70;;
5831;SDS011;50943;51.448;7.646;2022-12-07T06:32:05;43.73;;;17.17;;
5831;SDS011;50943;51.448;7.646;2022-12-07T06:34:32;36.00;;;15.80;;
5831;SDS011;50943;51.448;7.646;2022-12-07T06:36:59;36.87;;;16.57;;
5831;SDS011;50943;51.448;7.646;2022-12-07T06:39:26;34.10;;;17.07;;
5831;SDS011;50943;51.448;7.646;2022-12-07T06:41:53;37.13;;;16.60;;
5831;SDS011;50943;51.448;7.646;2022-12-07T06:44:20;43.23;;;17.20;;
5831;SDS011;50943;51.448;7.646;2022-12-07T06:46:51;33.20;;;15.80;;
5831;SDS011;50943;51.448;7.646;2022-12-07T06:49:17;38.53;;;17.17;;
5831;SDS011;50943;51.448;7.646;2022-12-07T06:51:44;42.87;;;17.30;;
5831;SDS011;50943;51.448;7.646;2022-12-07T06:54:11;37.53;;;17.20;;
5831;SDS011;50943;51.448;7.646;2022-12-07T06:56:38;35.30;;;16.47;;
5831;SDS011;50943;51.448;7.646;2022-12-07T06:59:04;44.27;;;18.77;;
5831;SDS011;50943;51.448;7.646;2022-12-07T07:01:31;41.40;;;17.70;;
5831;SDS011;50943;51.448;7.646;2022-12-07T07:03:59;34.13;;;17.00;;
5831;SDS011;50943;51.448;7.646;2022-12-07T07:06:26;44.43;;;19.17;;
5831;SDS011;50943;51.448;7.646;2022-12-07T07:08:52;41.97;;;19.40;;
5831;SDS011;50943;51.448;7.646;2022-12-07T07:11:18;44.27;;;17.67;;
5831;SDS011;50943;51.448;7.646;2022-12-07T07:13:46;45.50;;;19.57;;
5831;SDS011;50943;51.448;7.646;2022-12-07T07:16:13;46.60;;;18.47;;
5831;SDS011;50943;51.448;7.646;2022-12-07T07:18:39;43.83;;;18.97;;
5831;SDS011;50943;51.448;7.646;2022-12-07T07:21:07;47.57;;;18.73;;
5831;SDS011;50943;51.448;7.646;2022-12-07T07:23:34;50.90;;;20.07;;
5831;SDS011;50943;51.448;7.646;2022-12-07T07:26:00;41.10;;;19.33;;
5831;SDS011;50943;51.448;7.646;2022-12-07T07:28:27;43.80;;;19.63;;
5831;SDS011;50943;51.448;7.646;2022-12-07T07:30:53;42.20;;;18.17;;
5831;SDS011;50943;51.448;7.646;2022-12-07T07:33:19;47.77;;;19.07;;
5831;SDS011;50943;51.448;7.646;2022-12-07T07:35:46;42.23;;;17.20;;
5831;SDS011;50943;51.448;7.646;2022-12-07T07:38:14;40.40;;;18.67;;
5831;SDS011;50943;51.448;7.646;2022-12-07T07:40:40;42.50;;;17.13;;
5831;SDS011;50943;51.448;7.646;2022-12-07T07:43:06;44.97;;;18.90;;
5831;SDS011;50943;51.448;7.646;2022-12-07T07:45:34;40.70;;;17.43;;
5831;SDS011;50943;51.448;7.646;2022-12-07T07:48:00;40.97;;;18.30;;
5831;SDS011;50943;51.448;7.646;2022-12-07T07:50:27;40.90;;;16.70;;
5831;SDS011;50943;51.448;7.646;2022-12-07T07:52:53;41.70;;;16.20;;
5831;SDS011;50943;51.448;7.646;2022-12-07T07:55:21;45.27;;;17.30;;
5831;SDS011;50943;51.448;7.646;2022-12-07T07:57:47;38.10;;;17.43;;
5831;SDS011;50943;51.448;7.646;2022-12-07T08:00:14;41.63;;;17.57;;
5831;SDS011;50943;51.448;7.646;2022-12-07T08:02:41;44.33;;;18.47;;
5831;SDS011;50943;51.448;7.646;2022-12-07T08:05:09;41.90;;;16.47;;
5831;SDS011;50943;51.448;7.646;2022-12-07T08:07:36;37.93;;;17.77;;
5831;SDS011;50943;51.448;7.646;2022-12-07T08:10:02;34.73;;;16.07;;
5831;SDS011;50943;51.448;7.646;2022-12-07T08:12:30;40.60;;;17.97;;
5831;SDS011;50943;51.448;7.646;2022-12-07T08:14:56;45.77;;;18.43;;
5831;SDS011;50943;51.448;7.646;2022-12-07T08:17:23;35.37;;;18.07;;
5831;SDS011;50943;51.448;7.646;2022-12-07T08:19:49;36.83;;;16.40;;
5831;SDS011;50943;51.448;7.646;2022-12-07T08:22:16;39.13;;;16.93;;
5831;SDS011;50943;51.448;7.646;2022-12-07T08:24:42;45.07;;;18.10;;
5831;SDS011;50943;51.448;7.646;2022-12-07T08:27:08;40.20;;;17.10;;
5831;SDS011;50943;51.448;7.646;2022-12-07T08:29:36;43.87;;;18.00;;
5831;SDS011;50943;51.448;7.646;2022-12-07T08:32:03;41.77;;;15.97;;
5831;SDS011;50943;51.448;7.646;2022-12-07T08:34:29;39.93;;;18.30;;
5831;SDS011;50943;51.448;7.646;2022-12-07T08:36:56;53.97;;;18.77;;
5831;SDS011;50943;51.448;7.646;2022-12-07T08:39:22;46.33;;;18.87;;
5831;SDS011;50943;51.448;7.646;2022-12-07T08:41:49;45.37;;;17.47;;
5831;SDS011;50943;51.448;7.646;2022-12-07T08:44:15;39.20;;;16.70;;
5831;SDS011;50943;51.448;7.646;2022-12-07T08:46:44;43.40;;;17.87;;
5831;SDS011;50943;51.448;7.646;2022-12-07T08:49:13;42.53;;;16.30;;
5831;SDS011;50943;51.448;7.646;2022-12-07T08:51:42;35.00;;;15.47;;
5831;SDS011;50943;51.448;7.646;2022-12-07T08:54:09;33.93;;;16.80;;
5831;SDS011;50943;51.448;7.646;2022-12-07T08:56:36;31.20;;;14.90;;
5831;SDS011;50943;51.448;7.646;2022-12-07T08:59:04;39.67;;;14.23;;
5831;SDS011;50943;51.448;7.646;2022-12-07T09:01:30;31.10;;;14.60;;
5831;SDS011;50943;51.448;7.646;2022-12-07T09:03:58;33.60;;;13.60;;
5831;SDS011;50943;51.448;7.646;2022-12-07T09:06:24;27.73;;;15.30;;
5831;SDS011;50943;51.448;7.646;2022-12-07T09:08:52;28.03;;;13.63;;
5831;SDS011;50943;51.448;7.646;2022-12-07T09:11:20;27.50;;;14.20;;
5831;SDS011;50943;51.448;7.646;2022-12-07T09:13:46;27.00;;;13.33;;
5831;SDS011;50943;51.448;7.646;2022-12-07T09:16:13;26.77;;;12.20;;
5831;SDS011;50943;51.448;7.646;2022-12-07T09:18:40;34.67;;;13.50;;
5831;SDS011;50943;51.448;7.646;2022-12-07T09:21:08;30.93;;;12.77;;
5831;SDS011;50943;51.448;7.646;2022-12-07T09:23:35;26.23;;;12.97;;
5831;SDS011;50943;51.448;7.646;2022-12-07T09:26:02;28.17;;;12.90;;
5831;SDS011;50943;51.448;7.646;2022-12-07T09:28:29;27.67;;;12.50;;
5831;SDS011;50943;51.448;7.646;2022-12-07T09:30:56;22.57;;;13.13;;
5831;SDS011;50943;51.448;7.646;2022-12-07T09:33:22;32.17;;;14.73;;
5831;SDS011;50943;51.448;7.646;2022-12-07T09:35:49;31.20;;;13.63;;
5831;SDS011;50943;51.448;7.646;2022-12-07T09:38:17;25.10;;;12.30;;
5831;SDS011;50943;51.448;7.646;2022-12-07T09:40:44;30.50;;;13.10;;
5831;SDS011;50943;51.448;7.646;2022-12-07T09:43:12;28.60;;;13.73;;
5831;SDS011;50943;51.448;7.646;2022-12-07T09:45:39;28.63;;;14.43;;
5831;SDS011;50943;51.448;7.646;2022-12-07T09:48:08;30.13;;;15.23;;
5831;SDS011;50943;51.448;7.646;2022-12-07T09:50:39;29.30;;;15.30;;
5831;SDS011;50943;51.448;7.646;2022-12-07T09:53:08;31.60;;;15.67;;
5831;SDS011;50943;51.448;7.646;2022-12-07T09:55:36;31.77;;;15.80;;
5831;SDS011;50943;51.448;7.646;2022-12-07T09:58:04;34.47;;;16.37;;
5831;SDS011;50943;51.448;7.646;2022-12-07T10:00:30;32.07;;;16.10;;
5831;SDS011;50943;51.448;7.646;2022-12-07T10:02:57;46.47;;;19.17;;
5831;SDS011;50943;51.448;7.646;2022-12-07T10:05:24;44.30;;;19.27;;
5831;SDS011;50943;51.448;7.646;2022-12-07T10:07:51;35.00;;;18.03;;
5831;SDS011;50943;51.448;7.646;2022-12-07T10:10:19;35.13;;;17.60;;
5831;SDS011;50943;51.448;7.646;2022-12-07T10:12:54;36.13;;;19.00;;
5831;SDS011;50943;51.448;7.646;2022-12-07T10:15:20;52.43;;;19.33;;
5831;SDS011;50943;51.448;7.646;2022-12-07T10:17:47;42.90;;;20.00;;
5831;SDS011;50943;51.448;7.646;2022-12-07T10:20:15;32.43;;;17.57;;
5831;SDS011;50943;51.448;7.646;2022-12-07T10:22:56;36.97;;;17.87;;
5831;SDS011;50943;51.448;7.646;2022-12-07T10:25:24;45.03;;;20.07;;
5831;SDS011;50943;51.448;7.646;2022-12-07T10:28:09;43.43;;;19.50;;
5831;SDS011;50943;51.448;7.646;2022-12-07T10:30:46;41.87;;;19.83;;
5831;SDS011;50943;51.448;7.646;2022-12-07T10:33:15;36.17;;;18.67;;
5831;SDS011;50943;51.448;7.646;2022-12-07T10:35:53;42.20;;;21.03;;
5831;SDS011;50943;51.448;7.646;2022-12-07T10:38:19;37.57;;;20.27;;
5831;SDS011;50943;51.448;7.646;2022-12-07T10:40:46;39.37;;;20.83;;
5831;SDS011;50943;51.448;7.646;2022-12-07T10:43:17;43.03;;;19.97;;
5831;SDS011;50943;51.448;7.646;2022-12-07T10:45:54;43.53;;;21.83;;
5831;SDS011;50943;51.448;7.646;2022-12-07T10:48:27;44.50;;;20.57;;
5831;SDS011;50943;51.448;7.646;2022-12-07T10:50:58;40.70;;;19.57;;
5831;SDS011;50943;51.448;7.646;2022-12-07T10:53:38;42.67;;;20.57;;
5831;SDS011;50943;51.448;7.646;2022-12-07T10:56:15;44.80;;;19.37;;
5831;SDS011;50943;51.448;7.646;2022-12-07T10:58:51;48.37;;;20.60;;
5831;SDS011;50943;51.448;7.646;2022-12-07T11:01:22;40.83;;;20.97;;
5831;SDS011;50943;51.448;7.646;2022-12-07T11:03:53;50.27;;;22.40;;
5831;SDS011;50943;51.448;7.646;2022-12-07T11:06:25;41.40;;;21.57;;
5831;SDS011;50943;51.448;7.646;2022-12-07T11:08:58;48.03;;;19.17;;
5831;SDS011;50943;51.448;7.646;2022-12-07T11:11:27;46.90;;;20.77;;
5831;SDS011;50943;51.448;7.646;2022-12-07T11:13:59;42.47;;;21.07;;
5831;SDS011;50943;51.448;7.646;2022-12-07T11:16:30;41.90;;;21.03;;
5831;SDS011;50943;51.448;7.646;2022-12-07T11:19:06;45.60;;;21.40;;
5831;SDS011;50943;51.448;7.646;2022-12-07T11:21:41;44.67;;;21.00;;
5831;SDS011;50943;51.448;7.646;2022-12-07T11:24:10;39.30;;;18.87;;
5831;SDS011;50943;51.448;7.646;2022-12-07T11:26:41;49.13;;;19.23;;
5831;SDS011;50943;51.448;7.646;2022-12-07T11:29:17;39.17;;;18.87;;
5831;SDS011;50943;51.448;7.646;2022-12-07T11:31:50;33.83;;;18.00;;
5831;SDS011;50943;51.448;7.646;2022-12-07T11:34:22;29.60;;;16.10;;
5831;SDS011;50943;51.448;7.646;2022-12-07T11:36:53;38.90;;;18.77;;
5831;SDS011;50943;51.448;7.646;2022-12-07T11:39:23;32.63;;;16.87;;
5831;SDS011;50943;51.448;7.646;2022-12-07T11:41:52;32.60;;;17.43;;
5831;SDS011;50943;51.448;7.646;2022-12-07T11:44:23;23.13;;;14.90;;
5831;SDS011;50943;51.448;7.646;2022-12-07T11:46:52;26.37;;;15.50;;
5831;SDS011;50943;51.448;7.646;2022-12-07T11:49:21;27.20;;;15.07;;
5831;SDS011;50943;51.448;7.646;2022-12-07T11:51:51;33.83;;;14.87;;
5831;SDS011;50943;51.448;7.646;2022-12-07T11:54:19;23.30;;;13.53;;
5831;SDS011;50943;51.448;7.646;2022-12-07T11:56:48;23.37;;;13.10;;
5831;SDS011;50943;51.448;7.646;2022-12-07T11:59:17;23.03;;;12.30;;
5831;SDS011;50943;51.448;7.646;2022-12-07T12:01:50;27.43;;;12.23;;
5831;SDS011;50943;51.448;7.646;2022-12-07T12:04:29;24.17;;;12.63;;
5831;SDS011;50943;51.448;7.646;2022-12-07T12:06:57;20.20;;;11.10;;
5831;SDS011;50943;51.448;7.646;2022-12-07T12:09:24;18.97;;;11.07;;
5831;SDS011;50943;51.448;7.646;2022-12-07T12:12:02;18.30;;;10.80;;
5831;SDS011;50943;51.448;7.646;2022-12-07T12:14:43;16.30;;;10.57;;
5831;SDS011;50943;51.448;7.646;2022-12-07T12:17:25;19.63;;;10.47;;
5831;SDS011;50943;51.448;7.646;2022-12-07T12:20:00;21.43;;;11.47;;
5831;SDS011;50943;51.448;7.646;2022-12-07T12:22:28;23.07;;;11.50;;
5831;SDS011;50943;51.448;7.646;2022-12-07T12:24:57;21.70;;;12.20;;
5831;SDS011;50943;51.448;7.646;2022-12-07T12:27:24;21.57;;;12.20;;
5831;SDS011;50943;51.448;7.646;2022-12-07T12:29:53;19.00;;;10.47;;
5831;SDS011;50943;51.448;7.646;2022-12-07T12:32:21;23.93;;;11.57;;
5831;SDS011;50943;51.448;7.646;2022-12-07T12:35:00;22.77;;;11.10;;
5831;SDS011;50943;51.448;7.646;2022-12-07T12:37:40;27.33;;;12.20;;
5831;SDS011;50943;51.448;7.646;2022-12-07T12:42:56;19.37;;;11.20;;
5831;SDS011;50943;51.448;7.646;2022-12-07T12:45:23;21.73;;;10.60;;
5831;SDS011;50943;51.448;7.646;2022-12-07T12:47:54;14.27;;;9.60;;
5831;SDS011;50943;51.448;7.646;2022-12-07T12:50:23;27.03;;;10.10;;
5831;SDS011;50943;51.448;7.646;2022-12-07T12:52:52;27.13;;;9.70;;
5831;SDS011;50943;51.448;7.646;2022-12-07T12:58:21;14.80;;;8.30;;
5831;SDS011;50943;51.448;7.646;2022-12-07T13:00:48;16.97;;;6.60;;
5831;SDS011;50943;51.448;7.646;2022-12-07T13:03:34;15.27;;;7.93;;
5831;SDS011;50943;51.448;7.646;2022-12-07T13:06:18;12.63;;;6.60;;
5831;SDS011;50943;51.448;7.646;2022-12-07T13:08:45;19.07;;;6.70;;
5831;SDS011;50943;51.448;7.646;2022-12-07T13:11:16;13.30;;;5.80;;
5831;SDS011;50943;51.448;7.646;2022-12-07T13:13:43;10.67;;;5.70;;
5831;SDS011;50943;51.448;7.646;2022-12-07T13:18:54;13.33;;;5.17;;
5831;SDS011;50943;51.448;7.646;2022-12-07T13:24:07;14.50;;;5.60;;
5831;SDS011;50943;51.448;7.646;2022-12-07T13:26:36;14.63;;;4.43;;
5831;SDS011;50943;51.448;7.646;2022-12-07T13:29:06;11.07;;;4.20;;
5831;SDS011;50943;51.448;7.646;2022-12-07T13:31:33;13.83;;;4.00;;
5831;SDS011;50943;51.448;7.646;2022-12-07T13:34:00;10.50;;;3.73;;
5831;SDS011;50943;51.448;7.646;2022-12-07T13:36:27;11.70;;;3.93;;
5831;SDS011;50943;51.448;7.646;2022-12-07T13:38:57;7.27;;;3.50;;
5831;SDS011;50943;51.448;7.646;2022-12-07T13:41:25;8.30;;;3.73;;
5831;SDS011;50943;51.448;7.646;2022-12-07T13:43:53;8.40;;;3.63;;
5831;SDS011;50943;51.448;7.646;2022-12-07T13:46:22;11.50;;;3.30;;
5831;SDS011;50943;51.448;7.646;2022-12-07T13:48:50;10.37;;;3.33;;
5831;SDS011;50943;51.448;7.646;2022-12-07T13:51:17;7.93;;;3.00;;
5831;SDS011;50943;51.448;7.646;2022-12-07T13:53:46;6.20;;;3.30;;
5831;SDS011;50943;51.448;7.646;2022-12-07T13:56:12;10.47;;;3.20;;
5831;SDS011;50943;51.448;7.646;2022-12-07T13:58:41;16.07;;;5.30;;
5831;SDS011;50943;51.448;7.646;2022-12-07T14:01:08;11.50;;;5.50;;
5831;SDS011;50943;51.448;7.646;2022-12-07T14:03:35;13.40;;;7.40;;
5831;SDS011;50943;51.448;7.646;2022-12-07T14:08:46;14.80;;;9.63;;
5831;SDS011;50943;51.448;7.646;2022-12-07T14:11:16;15.87;;;8.40;;
5831;SDS011;50943;51.448;7.646;2022-12-07T14:13:57;14.40;;;8.93;;
5831;SDS011;50943;51.448;7.646;2022-12-07T14:16:25;16.87;;;9.73;;
5831;SDS011;50943;51.448;7.646;2022-12-07T14:18:52;15.83;;;8.63;;
5831;SDS011;50943;51.448;7.646;2022-12-07T14:21:20;18.40;;;10.20;;
5831;SDS011;50943;51.448;7.646;2022-12-07T14:24:01;12.50;;;8.30;;
5831;SDS011;50943;51.448;7.646;2022-12-07T14:26:28;31.23;;;9.43;;
5831;SDS011;50943;51.448;7.646;2022-12-07T14:29:18;17.70;;;9.20;;
5831;SDS011;50943;51.448;7.646;2022-12-07T14:31:42;22.33;;;9.80;;
5831;SDS011;50943;51.448;7.646;2022-12-07T14:34:11;14.80;;;8.87;;
5831;SDS011;50943;51.448;7.646;2022-12-07T14:36:37;18.83;;;10.33;;
5831;SDS011;50943;51.448;7.646;2022-12-07T14:39:04;18.63;;;10.70;;
5831;SDS011;50943;51.448;7.646;2022-12-07T14:41:30;19.00;;;10.00;;
5831;SDS011;50943;51.448;7.646;2022-12-07T14:44:14;20.03;;;9.40;;
5831;SDS011;50943;51.448;7.646;2022-12-07T14:46:41;22.63;;;10.57;;
5831;SDS011;50943;51.448;7.646;2022-12-07T14:49:08;18.03;;;9.80;;
5831;SDS011;50943;51.448;7.646;2022-12-07T14:51:36;16.77;;;9.67;;
5831;SDS011;50943;51.448;7.646;2022-12-07T14:54:03;14.83;;;8.50;;
5831;SDS011;50943;51.448;7.646;2022-12-07T14:56:30;20.50;;;10.17;;